This is the latest recevied weather packets stored in our database for station/object OH2TH. If no packets are shown the sender has not sent any weather packets the latest 10 day(s).
| Time | Temp. | Humidity | Pressure | Rain* | Wind** | Luminosity | Snow |
|---|---|---|---|---|---|---|---|
| 1777504501 | 2.22° C | 57% | 102 hPa | - | - | - | - |
| 1777503605 | 1.67° C | 61% | 102 hPa | - | - | - | - |
| 1777502704 | 1.67° C | 60% | 102 hPa | - | - | - | - |
| 1777501803 | 1.67° C | 58% | 102 hPa | - | - | - | - |
| 1777500903 | 1.67° C | 59% | 102 hPa | - | - | - | - |
| 1777500002 | 1.67° C | 58% | 102 hPa | - | - | - | - |
| 1777499101 | 1.67° C | 57% | 102 hPa | - | - | - | - |
| 1777498205 | 1.67° C | 58% | 102 hPa | - | - | - | - |
| 1777497304 | 2.78° C | 54% | 102 hPa | - | - | - | - |
| 1777496403 | 2.78° C | 52% | 102 hPa | - | - | - | - |
| 1777495502 | 2.78° C | 52% | 102 hPa | - | - | - | - |
| 1777494601 | 2.78° C | 53% | 102 hPa | - | - | - | - |
| 1777492804 | 4.44° C | 48% | 102 hPa | - | - | - | - |
| 1777491904 | 4.44° C | 49% | 102 hPa | - | - | - | - |
| 1777491003 | 4.44° C | 50% | 102 hPa | - | - | - | - |
| 1777490102 | 4.44° C | 44% | 102 hPa | - | - | - | - |
| 1777489201 | 5.56° C | 44% | 102 hPa | - | - | - | - |
| 1777488305 | 5.56° C | 42% | 102 hPa | - | - | - | - |
| 1777487404 | 6.67° C | 40% | 102 hPa | - | - | - | - |
| 1777486504 | 6.67° C | 38% | 102 hPa | - | - | - | - |
| 1777485603 | 7.78° C | 36% | 102 hPa | - | - | - | - |
| 1777484703 | 7.78° C | 36% | 102 hPa | - | - | - | - |
| 1777483803 | 7.78° C | 36% | 102 hPa | - | - | - | - |
| 1777482903 | 8.89° C | 34% | 102 hPa | - | - | - | - |
| 1777482002 | 8.89° C | 32% | 102 hPa | - | - | - | - |
* Rain since midnight (hover to see other rain measurements)
** Current wind speed in m/s (hover to see current wind gust speed)